Time;durP1;ratioP1;P1;durP2;ratioP2;P2;SDS_P1;SDS_P2;PMS_P1;PMS_P2;Temp;Humidity;BMP_temperature;BMP_pressure;BME280_temperature;BME280_humidity;BME280_pressure;Samples;Min_cycle;Max_cycle;Signal;HPM_P1;HPM_P2
2023/02/04 00:01:08;;;;;;;;;;;;;;;;;;4970480;28;19922;-72
2023/02/04 00:03:33;;;;;;;;;;;;;;;;;;4955395;28;19990;-71
2023/02/04 00:06:00;;;;;;;;;;;;;;;;;;4945804;28;20073;-69
2023/02/04 00:08:26;;;;;;;;;;;;;;;;;;4969851;28;19944;-70
2023/02/04 00:10:51;;;;;;;;;;;;;;;;;;4954389;28;20698;-69
2023/02/04 00:13:16;;;;;;;;;;;;;;;;;;4945560;28;20301;-70
2023/02/04 00:15:41;;;;;;;;;;;;;;;;;;4969957;28;19925;-70
2023/02/04 00:18:08;;;;;;;;;;;;;;;;;;4971398;28;19921;-70
2023/02/04 00:20:33;;;;;;;;;;;;;;;;;;4958818;28;19922;-70
2023/02/04 00:22:59;;;;;;;;;;;;;;;;;;4956133;28;19988;-70
2023/02/04 00:25:24;;;;;;;;;;;;;;;;;;4968877;28;19928;-71
2023/02/04 00:27:49;;;;;;;;;;;;;;;;;;4971057;28;19936;-71
2023/02/04 00:30:14;;;;;;;;;;;;;;;;;;4935299;28;19918;-71
2023/02/04 00:32:40;;;;;;;;;;;;;;;;;;4954258;28;20145;-70
2023/02/04 00:35:05;;;;;;;;;;;;;;;;;;4958745;28;19921;-70
2023/02/04 00:37:30;;;;;;;;;;;;;;;;;;4971234;28;19933;-70
2023/02/04 00:39:55;;;;;;;;;;;;;;;;;;4976092;28;20192;-70
2023/02/04 00:42:21;;;;;;;;;;;;;;;;;;4957460;28;19970;-71
2023/02/04 00:44:46;;;;;;;;;;;;;;;;;;4972027;28;20464;-70
2023/02/04 00:47:11;;;;;;;;;;;;;;;;;;4970971;28;19932;-71
2023/02/04 00:49:39;;;;;;;;;;;;;;;;;;4938100;28;19987;-71
2023/02/04 00:52:04;;;;;;;;;;;;;;;;;;4958022;28;20444;-71
2023/02/04 00:54:32;;;;;;;;;;;;;;;;;;4944645;28;19984;-70
2023/02/04 00:56:57;;;;;;;;;;;;;;;;;;4971069;28;20152;-69
2023/02/04 00:59:22;;;;;;;;;;;;;;;;;;4955062;28;19940;-69
2023/02/04 01:01:48;;;;;;;;;;;;;;;;;;4959116;28;19922;-69
2023/02/04 01:04:13;;;;;;;;;;;;;;;;;;4946617;28;19926;-69
2023/02/04 01:06:39;;;;;;;;;;;;;;;;;;4977003;28;20578;-70
2023/02/04 01:09:05;;;;;;;;;;;;;;;;;;4976088;28;20401;-70
2023/02/04 01:11:30;;;;;;;;;;;;;;;;;;4960589;28;20416;-70
2023/02/04 01:13:55;;;;;;;;;;;;;;;;;;4965096;28;20377;-70
2023/02/04 01:16:20;;;;;;;;;;;;;;;;;;4958140;28;20009;-70
2023/02/04 01:18:46;;;;;;;;;;;;;;;;;;4960678;28;19928;-70
2023/02/04 01:21:11;;;;;;;;;;;;;;;;;;4957852;28;19921;-70
2023/02/04 01:23:36;;;;;;;;;;;;;;;;;;4956469;28;20675;-69
2023/02/04 01:26:02;;;;;;;;;;;;;;;;;;4959140;28;19972;-70
2023/02/04 01:28:27;;;;;;;;;;;;;;;;;;4958507;28;20020;-70
2023/02/04 01:30:52;;;;;;;;;;;;;;;;;;4955621;28;20164;-71
2023/02/04 01:33:18;;;;;;;;;;;;;;;;;;4975482;28;19927;-70
2023/02/04 01:35:43;;;;;;;;;;;;;;;;;;4974729;28;19968;-70
2023/02/04 01:38:11;;;;;;;;;;;;;;;;;;4948216;28;19921;-71
2023/02/04 01:40:37;;;;;;;;;;;;;;;;;;4975662;28;19972;-70
2023/02/04 01:43:05;;;;;;;;;;;;;;;;;;4959991;28;19932;-70
2023/02/04 01:45:33;;;;;;;;;;;;;;;;;;4954422;28;22413;-70
2023/02/04 01:47:58;;;;;;;;;;;;;;;;;;4972208;28;19918;-70
2023/02/04 01:50:26;;;;;;;;;;;;;;;;;;4976730;28;19922;-70
2023/02/04 01:52:51;;;;;;;;;;;;;;;;;;4973335;28;20396;-70
2023/02/04 01:55:19;;;;;;;;;;;;;;;;;;4970848;28;20645;-70
2023/02/04 01:57:45;;;;;;;;;;;;;;;;;;4973550;28;19922;-70
2023/02/04 02:00:10;;;;;;;;;;;;;;;;;;4958128;28;20553;-69
2023/02/04 02:05:51;;;;;;;;;;;;;;;;;;4975341;28;20456;-70
2023/02/04 02:08:17;;;;;;;;;;;;;;;;;;4974561;28;20008;-70
2023/02/04 02:10:42;;;;;;;;;;;;;;;;;;4977666;28;19972;-70
2023/02/04 02:13:07;;;;;;;;;;;;;;;;;;4963211;28;19923;-69
2023/02/04 02:15:33;;;;;;;;;;;;;;;;;;4973970;28;19928;-70
2023/02/04 02:17:58;;;;;;;;;;;;;;;;;;4972914;28;19922;-70
2023/02/04 02:20:23;;;;;;;;;;;;;;;;;;4973485;28;19922;-69
2023/02/04 02:22:49;;;;;;;;;;;;;;;;;;4974007;28;19968;-70
2023/02/04 02:25:14;;;;;;;;;;;;;;;;;;4942714;28;21455;-69
2023/02/04 02:27:39;;;;;;;;;;;;;;;;;;4958901;28;20393;-70
2023/02/04 02:30:05;;;;;;;;;;;;;;;;;;4961791;28;19917;-70
2023/02/04 02:32:32;;;;;;;;;;;;;;;;;;4972888;28;20268;-70
2023/02/04 02:34:57;;;;;;;;;;;;;;;;;;4975645;28;19929;-70
2023/02/04 02:37:23;;;;;;;;;;;;;;;;;;4971057;28;20074;-69
2023/02/04 02:39:54;;;;;;;;;;;;;;;;;;4944335;28;19967;-70
2023/02/04 02:42:19;;;;;;;;;;;;;;;;;;4952162;28;20032;-70
2023/02/04 02:44:44;;;;;;;;;;;;;;;;;;4974993;28;20652;-68
2023/02/04 02:47:09;;;;;;;;;;;;;;;;;;4959216;28;20583;-68
2023/02/04 02:49:36;;;;;;;;;;;;;;;;;;4947000;28;20032;-69
2023/02/04 02:52:02;;;;;;;;;;;;;;;;;;4958250;28;19922;-69
2023/02/04 02:54:27;;;;;;;;;;;;;;;;;;4960223;28;19922;-69
2023/02/04 02:56:52;;;;;;;;;;;;;;;;;;4971840;28;19922;-69
2023/02/04 02:59:18;;;;;;;;;;;;;;;;;;4974478;28;19928;-69
2023/02/04 03:01:43;;;;;;;;;;;;;;;;;;4969915;28;19922;-69
2023/02/04 03:04:08;;;;;;;;;;;;;;;;;;4972310;28;19989;-69
2023/02/04 03:06:34;;;;;;;;;;;;;;;;;;4972095;28;20388;-68
2023/02/04 03:08:59;;;;;;;;;;;;;;;;;;4971573;28;19952;-69
2023/02/04 03:11:28;;;;;;;;;;;;;;;;;;4960282;28;19941;-69
2023/02/04 03:13:56;;;;;;;;;;;;;;;;;;4971686;28;20565;-69
2023/02/04 03:16:21;;;;;;;;;;;;;;;;;;4974265;28;20203;-70
2023/02/04 03:18:46;;;;;;;;;;;;;;;;;;4957604;28;20016;-69
2023/02/04 03:21:12;;;;;;;;;;;;;;;;;;4973515;28;19982;-67
2023/02/04 03:23:37;;;;;;;;;;;;;;;;;;4955227;28;20197;-69
2023/02/04 03:26:02;;;;;;;;;;;;;;;;;;4972943;28;19922;-69
2023/02/04 03:28:29;;;;;;;;;;;;;;;;;;4976771;28;19967;-69
2023/02/04 03:30:54;;;;;;;;;;;;;;;;;;4957722;28;19928;-69
2023/02/04 03:33:19;;;;;;;;;;;;;;;;;;4971730;28;19985;-69
2023/02/04 03:35:45;;;;;;;;;;;;;;;;;;4947141;28;20016;-68
2023/02/04 03:38:11;;;;;;;;;;;;;;;;;;4959524;28;19949;-69
2023/02/04 03:40:36;;;;;;;;;;;;;;;;;;4957460;28;20024;-69
2023/02/04 03:43:01;;;;;;;;;;;;;;;;;;4969527;28;20309;-70
2023/02/04 03:45:27;;;;;;;;;;;;;;;;;;4940158;28;20158;-69
2023/02/04 03:48:07;;;;;;;;;;;;;;;;;;4972522;28;20379;-70
2023/02/04 03:50:32;;;;;;;;;;;;;;;;;;4949824;28;20016;-68
2023/02/04 03:53:00;;;;;;;;;;;;;;;;;;4974500;28;20918;-70
2023/02/04 03:55:31;;;;;;;;;;;;;;;;;;4969372;28;19918;-70
2023/02/04 03:57:58;;;;;;;;;;;;;;;;;;4956704;28;20052;-70
2023/02/04 04:00:24;;;;;;;;;;;;;;;;;;4968808;28;20082;-69
2023/02/04 04:02:49;;;;;;;;;;;;;;;;;;4953900;28;20335;-70
2023/02/04 04:05:14;;;;;;;;;;;;;;;;;;4974564;28;19960;-69
2023/02/04 04:07:40;;;;;;;;;;;;;;;;;;4960640;28;19979;-69
2023/02/04 04:10:05;;;;;;;;;;;;;;;;;;4973988;28;19932;-69
2023/02/04 04:12:33;;;;;;;;;;;;;;;;;;4960071;28;19936;-69
2023/02/04 04:14:58;;;;;;;;;;;;;;;;;;4971917;28;20474;-69
2023/02/04 04:17:23;;;;;;;;;;;;;;;;;;4954215;28;19925;-69
2023/02/04 04:19:49;;;;;;;;;;;;;;;;;;4971302;28;21603;-70
2023/02/04 04:22:14;;;;;;;;;;;;;;;;;;4959847;28;19929;-70
2023/02/04 04:24:39;;;;;;;;;;;;;;;;;;4956379;28;19921;-70
2023/02/04 04:27:04;;;;;;;;;;;;;;;;;;4955946;28;19928;-69
2023/02/04 04:29:30;;;;;;;;;;;;;;;;;;4959833;28;20788;-70
2023/02/04 04:31:55;;;;;;;;;;;;;;;;;;4956526;28;19925;-70
2023/02/04 04:34:20;;;;;;;;;;;;;;;;;;4972857;28;19921;-70
2023/02/04 04:36:46;;;;;;;;;;;;;;;;;;4975504;28;20510;-69
2023/02/04 04:39:11;;;;;;;;;;;;;;;;;;4944373;28;20540;-69
2023/02/04 04:41:36;;;;;;;;;;;;;;;;;;4965199;28;19957;-69
2023/02/04 04:44:02;;;;;;;;;;;;;;;;;;4961313;28;19925;-70
2023/02/04 04:46:27;;;;;;;;;;;;;;;;;;4959611;28;19922;-69
2023/02/04 04:48:52;;;;;;;;;;;;;;;;;;4961562;28;19994;-70
2023/02/04 04:51:18;;;;;;;;;;;;;;;;;;4976960;28;20300;-70
2023/02/04 04:53:43;;;;;;;;;;;;;;;;;;4959195;28;19945;-69
2023/02/04 04:56:08;;;;;;;;;;;;;;;;;;4972682;28;19937;-69
2023/02/04 04:58:36;;;;;;;;;;;;;;;;;;4963645;28;19921;-69
2023/02/04 05:01:02;;;;;;;;;;;;;;;;;;4957472;28;19960;-69
2023/02/04 05:03:27;;;;;;;;;;;;;;;;;;4973391;28;20238;-67
2023/02/04 05:05:52;;;;;;;;;;;;;;;;;;4975624;28;19913;-69
2023/02/04 05:08:19;;;;;;;;;;;;;;;;;;4958229;28;20144;-70
2023/02/04 05:10:45;;;;;;;;;;;;;;;;;;4976096;28;20050;-69
2023/02/04 05:13:10;;;;;;;;;;;;;;;;;;4976750;28;20244;-70
2023/02/04 05:15:35;;;;;;;;;;;;;;;;;;4959155;28;20014;-70
2023/02/04 05:18:01;;;;;;;;;;;;;;;;;;4974780;28;19922;-69
2023/02/04 05:20:26;;;;;;;;;;;;;;;;;;4957724;28;19925;-69
2023/02/04 05:22:51;;;;;;;;;;;;;;;;;;4960752;28;20443;-69
2023/02/04 05:25:17;;;;;;;;;;;;;;;;;;4960089;28;20020;-69
2023/02/04 05:27:42;;;;;;;;;;;;;;;;;;4975127;28;19921;-70
2023/02/04 05:30:07;;;;;;;;;;;;;;;;;;4956489;28;19960;-69
2023/02/04 05:32:32;;;;;;;;;;;;;;;;;;4963697;28;20182;-69
2023/02/04 05:34:58;;;;;;;;;;;;;;;;;;4958690;28;19965;-70
2023/02/04 05:37:23;;;;;;;;;;;;;;;;;;4973972;28;19929;-69
2023/02/04 05:39:48;;;;;;;;;;;;;;;;;;4974264;28;19922;-70
2023/02/04 05:42:14;;;;;;;;;;;;;;;;;;4957395;28;19921;-70
2023/02/04 05:44:39;;;;;;;;;;;;;;;;;;4972923;28;19948;-70
2023/02/04 05:47:04;;;;;;;;;;;;;;;;;;4974022;28;19929;-70
2023/02/04 05:49:29;;;;;;;;;;;;;;;;;;4947186;28;19928;-68
2023/02/04 05:51:55;;;;;;;;;;;;;;;;;;4960189;28;19929;-69
2023/02/04 05:54:20;;;;;;;;;;;;;;;;;;4975121;28;19922;-69
2023/02/04 05:56:46;;;;;;;;;;;;;;;;;;4967004;28;20699;-70
2023/02/04 05:59:11;;;;;;;;;;;;;;;;;;4962736;28;19960;-69
2023/02/04 06:01:36;;;;;;;;;;;;;;;;;;4955890;28;19945;-69
2023/02/04 06:04:01;;;;;;;;;;;;;;;;;;4971310;28;19925;-69
2023/02/04 06:06:27;;;;;;;;;;;;;;;;;;4977107;28;20032;-69
2023/02/04 06:08:54;;;;;;;;;;;;;;;;;;4972846;28;19922;-69
2023/02/04 06:11:20;;;;;;;;;;;;;;;;;;4969534;28;19921;-69
2023/02/04 06:13:45;;;;;;;;;;;;;;;;;;4957328;28;20640;-70
2023/02/04 06:16:10;;;;;;;;;;;;;;;;;;4969028;28;20135;-69
2023/02/04 06:18:35;;;;;;;;;;;;;;;;;;4954982;28;19928;-70
2023/02/04 06:21:03;;;;;;;;;;;;;;;;;;4963898;28;19929;-70
2023/02/04 06:23:28;;;;;;;;;;;;;;;;;;4966958;28;19922;-69
2023/02/04 06:25:56;;;;;;;;;;;;;;;;;;4953631;28;19960;-69
2023/02/04 06:28:22;;;;;;;;;;;;;;;;;;4968308;28;19928;-68
2023/02/04 06:30:48;;;;;;;;;;;;;;;;;;4955068;28;20261;-69
2023/02/04 06:33:13;;;;;;;;;;;;;;;;;;4967768;28;19975;-69
2023/02/04 06:35:38;;;;;;;;;;;;;;;;;;4971106;28;19930;-70
2023/02/04 06:38:04;;;;;;;;;;;;;;;;;;4973009;28;20044;-70
2023/02/04 06:40:29;;;;;;;;;;;;;;;;;;4975165;28;20274;-70
2023/02/04 06:42:54;;;;;;;;;;;;;;;;;;4974471;28;20454;-70
2023/02/04 06:45:20;;;;;;;;;;;;;;;;;;4968398;28;20166;-70
2023/02/04 06:47:45;;;;;;;;;;;;;;;;;;4956119;28;20202;-70
2023/02/04 06:50:11;;;;;;;;;;;;;;;;;;4959708;28;20012;-70
2023/02/04 06:52:36;;;;;;;;;;;;;;;;;;4957340;28;20892;-70
2023/02/04 06:55:04;;;;;;;;;;;;;;;;;;4943028;28;20398;-70
2023/02/04 06:57:29;;;;;;;;;;;;;;;;;;4957434;28;20421;-69
2023/02/04 06:59:54;;;;;;;;;;;;;;;;;;4957814;28;19922;-70
2023/02/04 07:02:20;;;;;;;;;;;;;;;;;;4956718;28;19980;-70
2023/02/04 07:04:48;;;;;;;;;;;;;;;;;;4957148;28;19922;-70
2023/02/04 07:07:15;;;;;;;;;;;;;;;;;;4957449;28;19928;-71
2023/02/04 07:09:41;;;;;;;;;;;;;;;;;;4969811;28;19941;-71
2023/02/04 07:12:06;;;;;;;;;;;;;;;;;;4971671;28;19926;-70
2023/02/04 07:14:32;;;;;;;;;;;;;;;;;;4970899;28;20062;-69
2023/02/04 07:17:00;;;;;;;;;;;;;;;;;;4969602;28;19917;-71
2023/02/04 07:19:25;;;;;;;;;;;;;;;;;;4970255;28;19917;-70
2023/02/04 07:21:52;;;;;;;;;;;;;;;;;;4954251;28;19922;-69
2023/02/04 07:24:18;;;;;;;;;;;;;;;;;;4957169;28;19957;-72
2023/02/04 07:26:43;;;;;;;;;;;;;;;;;;4948070;28;20433;-69
2023/02/04 07:29:11;;;;;;;;;;;;;;;;;;4953519;28;20016;-70
2023/02/04 07:31:38;;;;;;;;;;;;;;;;;;4951534;28;19930;-69
2023/02/04 07:34:04;;;;;;;;;;;;;;;;;;4972291;28;19921;-69
2023/02/04 07:36:29;;;;;;;;;;;;;;;;;;4954222;28;19961;-70
2023/02/04 07:38:54;;;;;;;;;;;;;;;;;;4973657;28;19921;-70
2023/02/04 07:44:36;;;;;;;;;;;;;;;;;;4970835;28;20410;-69
2023/02/04 07:47:04;;;;;;;;;;;;;;;;;;4958438;28;19922;-69
2023/02/04 07:49:29;;;;;;;;;;;;;;;;;;4953628;28;19922;-69
2023/02/04 07:51:56;;;;;;;;;;;;;;;;;;4962523;28;20270;-70
2023/02/04 07:54:24;;;;;;;;;;;;;;;;;;4961386;28;19929;-67
2023/02/04 07:56:49;;;;;;;;;;;;;;;;;;4952678;28;20004;-70
2023/02/04 07:59:17;;;;;;;;;;;;;;;;;;4971390;28;19927;-70
2023/02/04 08:01:43;;;;;;;;;;;;;;;;;;4938913;28;20366;-69
2023/02/04 08:04:08;;;;;;;;;;;;;;;;;;4959377;28;20377;-71
2023/02/04 08:06:36;;;;;;;;;;;;;;;;;;4955697;28;20025;-70
2023/02/04 08:09:01;;;;;;;;;;;;;;;;;;4955527;28;19922;-70
2023/02/04 08:11:29;;;;;;;;;;;;;;;;;;4957728;28;19933;-69
2023/02/04 08:13:54;;;;;;;;;;;;;;;;;;4954759;28;19921;-69
2023/02/04 08:16:20;;;;;;;;;;;;;;;;;;4960276;28;20468;-70
2023/02/04 08:18:45;;;;;;;;;;;;;;;;;;4953349;28;19929;-69
2023/02/04 08:21:10;;;;;;;;;;;;;;;;;;4954551;28;20020;-69
2023/02/04 08:23:40;;;;;;;;;;;;;;;;;;4970132;28;20625;-70
2023/02/04 08:26:05;;;;;;;;;;;;;;;;;;4956042;28;19921;-69
2023/02/04 08:28:31;;;;;;;;;;;;;;;;;;4952753;28;21730;-70
2023/02/04 08:30:56;;;;;;;;;;;;;;;;;;4970118;28;19917;-68
2023/02/04 08:33:24;;;;;;;;;;;;;;;;;;4955139;28;19975;-70
2023/02/04 08:35:50;;;;;;;;;;;;;;;;;;4951956;28;20044;-70
2023/02/04 08:38:16;;;;;;;;;;;;;;;;;;4959352;28;19973;-70
2023/02/04 08:40:41;;;;;;;;;;;;;;;;;;4972254;28;19930;-70
2023/02/04 08:43:07;;;;;;;;;;;;;;;;;;4942297;28;19968;-70
2023/02/04 08:45:32;;;;;;;;;;;;;;;;;;4966374;28;19921;-70
2023/02/04 08:47:57;;;;;;;;;;;;;;;;;;4940037;28;20405;-69
2023/02/04 08:50:23;;;;;;;;;;;;;;;;;;4952250;28;20182;-70
2023/02/04 08:52:51;;;;;;;;;;;;;;;;;;4944357;28;19928;-70
2023/02/04 08:55:18;;;;;;;;;;;;;;;;;;4968968;28;19918;-69
2023/02/04 08:57:44;;;;;;;;;;;;;;;;;;4967178;28;19929;-69
2023/02/04 09:00:09;;;;;;;;;;;;;;;;;;4941815;28;19921;-70
2023/02/04 09:02:37;;;;;;;;;;;;;;;;;;4945915;28;19987;-70
2023/02/04 09:05:03;;;;;;;;;;;;;;;;;;4942216;28;20337;-69
2023/02/04 09:07:30;;;;;;;;;;;;;;;;;;4970597;28;20469;-69
2023/02/04 09:09:58;;;;;;;;;;;;;;;;;;4957340;28;19983;-69
2023/02/04 09:12:23;;;;;;;;;;;;;;;;;;4971108;28;20199;-68
2023/02/04 09:14:49;;;;;;;;;;;;;;;;;;4955244;28;19966;-70
2023/02/04 09:17:16;;;;;;;;;;;;;;;;;;4965361;28;20293;-69
2023/02/04 09:19:42;;;;;;;;;;;;;;;;;;4954527;28;19965;-69
2023/02/04 09:22:11;;;;;;;;;;;;;;;;;;4957441;28;20016;-70
2023/02/04 09:24:38;;;;;;;;;;;;;;;;;;4961139;28;19941;-69
2023/02/04 09:27:07;;;;;;;;;;;;;;;;;;4958187;28;19929;-69
2023/02/04 09:29:32;;;;;;;;;;;;;;;;;;4943900;28;19973;-69
2023/02/04 09:34:46;;;;;;;;;;;;;;;;;;4998049;23;19980;-64
2023/02/04 09:37:14;;;;;;;;;;;;;;;;;;4942000;28;20419;-63
2023/02/04 09:39:39;;;;;;;;;;;;;;;;;;4965438;28;20003;-64
2023/02/04 09:42:07;;;;;;;;;;;;;;;;;;4947294;28;20456;-63
2023/02/04 09:44:32;;;;;;;;;;;;;;;;;;4959430;28;20004;-63
2023/02/04 09:46:58;;;;;;;;;;;;;;;;;;4975982;28;19921;-64
2023/02/04 09:49:23;;;;;;;;;;;;;;;;;;4946396;28;19924;-63
2023/02/04 09:51:51;;;;;;;;;;;;;;;;;;4978296;28;19918;-64
2023/02/04 09:54:19;;;;;;;;;;;;;;;;;;4956190;28;19925;-63
2023/02/04 09:56:44;;;;;;;;;;;;;;;;;;4960907;28;19929;-64
2023/02/04 09:59:09;;;;;;;;;;;;;;;;;;4978992;28;19972;-63
2023/02/04 10:01:37;;;;;;;;;;;;;;;;;;4958855;28;20376;-64
2023/02/04 10:04:03;;;;;;;;;;;;;;;;;;4957625;28;19926;-64
2023/02/04 10:06:28;;;;;;;;;;;;;;;;;;4960230;28;19933;-64
2023/02/04 10:08:56;;;;;;;;;;;;;;;;;;4959425;28;20328;-63
2023/02/04 10:11:21;;;;;;;;;;;;;;;;;;4977269;28;19917;-64
2023/02/04 10:13:49;;;;;;;;;;;;;;;;;;4947590;28;19918;-65
2023/02/04 10:16:14;;;;;;;;;;;;;;;;;;4976063;28;19952;-63
2023/02/04 10:18:39;;;;;;;;;;;;;;;;;;4949813;28;19921;-63
2023/02/04 10:21:04;;;;;;;;;;;;;;;;;;4981314;28;19965;-63
2023/02/04 10:23:33;;;;;;;;;;;;;;;;;;4948979;28;19925;-64
2023/02/04 10:26:00;;;;;;;;;;;;;;;;;;4947922;28;19990;-63
2023/02/04 10:28:26;;;;;;;;;;;;;;;;;;4979239;28;20253;-63
2023/02/04 10:30:51;;;;;;;;;;;;;;;;;;4959279;28;20020;-64
2023/02/04 10:33:16;;;;;;;;;;;;;;;;;;4945063;28;19981;-63
2023/02/04 10:35:41;;;;;;;;;;;;;;;;;;4952788;28;20468;-64
2023/02/04 10:38:12;;;;;;;;;;;;;;;;;;4955535;28;20369;-62
2023/02/04 10:40:37;;;;;;;;;;;;;;;;;;4956863;28;19918;-64
2023/02/04 10:43:06;;;;;;;;;;;;;;;;;;4972787;28;20677;-63
2023/02/04 10:45:33;;;;;;;;;;;;;;;;;;4953988;28;20199;-64
2023/02/04 10:47:59;;;;;;;;;;;;;;;;;;4969727;28;19918;-63
2023/02/04 10:50:28;;;;;;;;;;;;;;;;;;4956010;28;20185;-63
2023/02/04 10:52:54;;;;;;;;;;;;;;;;;;4947371;28;20404;-64
2023/02/04 10:55:19;;;;;;;;;;;;;;;;;;4971152;28;20377;-64
2023/02/04 10:57:47;;;;;;;;;;;;;;;;;;4941604;28;19922;-64
2023/02/04 11:00:15;;;;;;;;;;;;;;;;;;4946236;28;20440;-64
2023/02/04 11:02:43;;;;;;;;;;;;;;;;;;4972021;28;22089;-63
2023/02/04 11:05:08;;;;;;;;;;;;;;;;;;4970837;28;19917;-63
2023/02/04 11:07:36;;;;;;;;;;;;;;;;;;4954117;28;19928;-63
2023/02/04 11:10:01;;;;;;;;;;;;;;;;;;4940260;28;20462;-64
2023/02/04 11:12:32;;;;;;;;;;;;;;;;;;4954949;28;20039;-63
2023/02/04 11:14:59;;;;;;;;;;;;;;;;;;4970189;28;19976;-63
2023/02/04 11:17:28;;;;;;;;;;;;;;;;;;4942914;28;20097;-63
2023/02/04 11:19:54;;;;;;;;;;;;;;;;;;4954688;28;19918;-63
2023/02/04 11:22:19;;;;;;;;;;;;;;;;;;4971957;28;19921;-64
2023/02/04 11:24:45;;;;;;;;;;;;;;;;;;4944168;28;19922;-63
2023/02/04 11:27:13;;;;;;;;;;;;;;;;;;4956182;28;20317;-63
2023/02/04 11:29:41;;;;;;;;;;;;;;;;;;4958141;28;19930;-64
2023/02/04 11:32:09;;;;;;;;;;;;;;;;;;4960372;28;20361;-64
2023/02/04 11:34:34;;;;;;;;;;;;;;;;;;4957158;28;20370;-64
2023/02/04 11:37:14;;;;;;;;;;;;;;;;;;5048680;28;21789;-63
2023/02/04 11:39:42;;;;;;;;;;;;;;;;;;5046110;28;20374;-63
2023/02/04 11:42:07;;;;;;;;;;;;;;;;;;5045954;28;21383;-62
2023/02/04 11:44:33;;;;;;;;;;;;;;;;;;5049116;28;20680;-63
2023/02/04 11:46:58;;;;;;;;;;;;;;;;;;5047874;28;20321;-63
2023/02/04 11:49:23;;;;;;;;;;;;;;;;;;5047677;28;19920;-63
2023/02/04 11:51:51;;;;;;;;;;;;;;;;;;5045540;28;20320;-63
2023/02/04 11:54:20;;;;;;;;;;;;;;;;;;5041810;28;19921;-62
2023/02/04 11:56:45;;;;;;;;;;;;;;;;;;5045982;28;19936;-63
2023/02/04 11:59:10;;;;;;;;;;;;;;;;;;5037726;28;20014;-64
2023/02/04 12:01:38;;;;;;;;;;;;;;;;;;5035494;28;20040;-64
2023/02/04 12:04:06;;;;;;;;;;;;;;;;;;5052847;28;21810;-64
2023/02/04 12:06:32;;;;;;;;;;;;;;;;;;5043412;28;19916;-63
2023/02/04 12:08:57;;;;;;;;;;;;;;;;;;5044618;28;19921;-63
2023/02/04 12:11:24;;;;;;;;;;;;;;;;;;5047422;28;19956;-62
2023/02/04 12:13:50;;;;;;;;;;;;;;;;;;5045012;28;20478;-63
2023/02/04 12:16:16;;;;;;;;;;;;;;;;;;5042138;28;19928;-62
2023/02/04 12:18:44;;;;;;;;;;;;;;;;;;5042954;28;20497;-64
2023/02/04 12:21:09;;;;;;;;;;;;;;;;;;5045424;28;20554;-63
2023/02/04 12:23:34;;;;;;;;;;;;;;;;;;5044468;28;19928;-63
2023/02/04 12:26:00;;;;;;;;;;;;;;;;;;5043097;28;20041;-63
2023/02/04 12:28:26;;;;;;;;;;;;;;;;;;5046084;28;19930;-63
2023/02/04 12:31:03;;;;;;;;;;;;;;;;;;5045359;28;20517;-64
2023/02/04 12:33:29;;;;;;;;;;;;;;;;;;5036447;28;19920;-63
2023/02/04 12:35:54;;;;;;;;;;;;;;;;;;5044995;28;19935;-62
2023/02/04 12:38:20;;;;;;;;;;;;;;;;;;5032271;28;19920;-64
2023/02/04 12:40:47;;;;;;;;;;;;;;;;;;5043496;28;19955;-63
2023/02/04 12:43:13;;;;;;;;;;;;;;;;;;5044184;28;19917;-64
2023/02/04 12:45:40;;;;;;;;;;;;;;;;;;5042487;28;19920;-63
2023/02/04 12:48:05;;;;;;;;;;;;;;;;;;5035285;28;19952;-63
2023/02/04 12:50:31;;;;;;;;;;;;;;;;;;5019297;28;21696;-63
2023/02/04 12:52:56;;;;;;;;;;;;;;;;;;5032534;28;19959;-62
2023/02/04 12:55:21;;;;;;;;;;;;;;;;;;5017880;28;19924;-63
2023/02/04 12:57:46;;;;;;;;;;;;;;;;;;5037199;28;19976;-63
2023/02/04 13:00:12;;;;;;;;;;;;;;;;;;5027636;28;20078;-64
2023/02/04 13:02:40;;;;;;;;;;;;;;;;;;5032955;28;20019;-64
2023/02/04 13:05:08;;;;;;;;;;;;;;;;;;5032333;28;20749;-64
2023/02/04 13:07:39;;;;;;;;;;;;;;;;;;5019405;28;19939;-63
2023/02/04 13:10:04;;;;;;;;;;;;;;;;;;5019312;28;20363;-63
2023/02/04 13:12:29;;;;;;;;;;;;;;;;;;5032193;28;19956;-63
2023/02/04 13:14:55;;;;;;;;;;;;;;;;;;5028759;28;19927;-62
2023/02/04 13:17:20;;;;;;;;;;;;;;;;;;5030786;28;19920;-62
2023/02/04 13:19:48;;;;;;;;;;;;;;;;;;5030864;28;19982;-63
2023/02/04 13:22:16;;;;;;;;;;;;;;;;;;5031962;28;19940;-64
2023/02/04 13:24:42;;;;;;;;;;;;;;;;;;5012221;28;19921;-63
2023/02/04 13:27:07;;;;;;;;;;;;;;;;;;5033021;28;21026;-65
2023/02/04 13:29:32;;;;;;;;;;;;;;;;;;5036082;28;20442;-63
2023/02/04 13:32:02;;;;;;;;;;;;;;;;;;5028258;28;19978;-63
2023/02/04 13:34:27;;;;;;;;;;;;;;;;;;5014640;28;19948;-65
2023/02/04 13:36:56;;;;;;;;;;;;;;;;;;5033966;28;20566;-64
2023/02/04 13:39:21;;;;;;;;;;;;;;;;;;5030963;28;19943;-64
2023/02/04 13:41:46;;;;;;;;;;;;;;;;;;5030917;28;20673;-63
2023/02/04 13:44:12;;;;;;;;;;;;;;;;;;5032789;28;19924;-64
2023/02/04 13:46:37;;;;;;;;;;;;;;;;;;5031645;28;20031;-64
2023/02/04 13:49:05;;;;;;;;;;;;;;;;;;5034303;28;20012;-63
2023/02/04 13:51:33;;;;;;;;;;;;;;;;;;5030769;28;19993;-63
2023/02/04 13:53:59;;;;;;;;;;;;;;;;;;5047572;28;20400;-63
2023/02/04 13:56:27;;;;;;;;;;;;;;;;;;5029476;28;19932;-63
2023/02/04 13:58:55;;;;;;;;;;;;;;;;;;5017225;28;19920;-63
2023/02/04 14:01:21;;;;;;;;;;;;;;;;;;5031976;28;20450;-63
2023/02/04 14:03:49;;;;;;;;;;;;;;;;;;5031340;28;19924;-64
2023/02/04 14:06:19;;;;;;;;;;;;;;;;;;5031732;28;19927;-63
2023/02/04 14:08:46;;;;;;;;;;;;;;;;;;5031373;28;19921;-64
2023/02/04 14:11:15;;;;;;;;;;;;;;;;;;5030319;28;19978;-64
2023/02/04 14:13:40;;;;;;;;;;;;;;;;;;5030706;28;20465;-63
2023/02/04 14:16:08;;;;;;;;;;;;;;;;;;5029294;28;20406;-64
2023/02/04 14:18:35;;;;;;;;;;;;;;;;;;5032630;28;19927;-64
2023/02/04 14:21:03;;;;;;;;;;;;;;;;;;5018858;28;20019;-64
2023/02/04 14:23:28;;;;;;;;;;;;;;;;;;5028211;28;19974;-64
2023/02/04 14:25:54;;;;;;;;;;;;;;;;;;5026982;28;19927;-63
2023/02/04 14:28:19;;;;;;;;;;;;;;;;;;5030701;28;19927;-63
2023/02/04 14:30:44;;;;;;;;;;;;;;;;;;5027377;28;19928;-63
2023/02/04 14:33:14;;;;;;;;;;;;;;;;;;5028012;28;20462;-63
2023/02/04 14:35:39;;;;;;;;;;;;;;;;;;5021533;28;19929;-63
2023/02/04 14:38:05;;;;;;;;;;;;;;;;;;5032532;28;19924;-63
2023/02/04 14:40:32;;;;;;;;;;;;;;;;;;5030621;28;20507;-63
2023/02/04 14:42:57;;;;;;;;;;;;;;;;;;5031562;28;20393;-63
2023/02/04 14:45:23;;;;;;;;;;;;;;;;;;5027473;28;20118;-63
2023/02/04 14:47:51;;;;;;;;;;;;;;;;;;5028325;28;19997;-63
2023/02/04 14:50:16;;;;;;;;;;;;;;;;;;5016920;28;20174;-62
2023/02/04 14:52:44;;;;;;;;;;;;;;;;;;5030361;28;19927;-63
2023/02/04 14:55:13;;;;;;;;;;;;;;;;;;5026742;28;20039;-63
2023/02/04 14:57:38;;;;;;;;;;;;;;;;;;5017439;28;19920;-63
2023/02/04 15:00:03;;;;;;;;;;;;;;;;;;5019685;28;19921;-65
2023/02/04 15:02:29;;;;;;;;;;;;;;;;;;5016427;28;19916;-64
2023/02/04 15:04:54;;;;;;;;;;;;;;;;;;5019538;28;20882;-63
2023/02/04 15:07:25;;;;;;;;;;;;;;;;;;5026568;28;20308;-63
2023/02/04 15:09:52;;;;;;;;;;;;;;;;;;5016836;28;20446;-63
2023/02/04 15:12:18;;;;;;;;;;;;;;;;;;5025318;28;20183;-63
2023/02/04 15:14:45;;;;;;;;;;;;;;;;;;5018759;28;20391;-63
2023/02/04 15:17:11;;;;;;;;;;;;;;;;;;5020203;28;19925;-62
2023/02/04 15:19:41;;;;;;;;;;;;;;;;;;5025811;28;20361;-63
2023/02/04 15:22:06;;;;;;;;;;;;;;;;;;5019148;28;20010;-63
2023/02/04 15:24:35;;;;;;;;;;;;;;;;;;5016214;28;20006;-63
2023/02/04 15:27:03;;;;;;;;;;;;;;;;;;5017947;28;19943;-63
2023/02/04 15:29:30;;;;;;;;;;;;;;;;;;5028352;28;20398;-63
2023/02/04 15:31:56;;;;;;;;;;;;;;;;;;5030322;28;20047;-64
2023/02/04 15:34:21;;;;;;;;;;;;;;;;;;5029361;28;19938;-64
2023/02/04 15:36:46;;;;;;;;;;;;;;;;;;5029183;28;19967;-63
2023/02/04 15:39:15;;;;;;;;;;;;;;;;;;5033211;28;19982;-63
2023/02/04 15:41:45;;;;;;;;;;;;;;;;;;5029872;28;20475;-63
2023/02/04 15:44:13;;;;;;;;;;;;;;;;;;5027230;28;19928;-63
2023/02/04 15:46:38;;;;;;;;;;;;;;;;;;5031249;28;20187;-63
2023/02/04 15:49:07;;;;;;;;;;;;;;;;;;5020201;28;20015;-62
2023/02/04 15:51:36;;;;;;;;;;;;;;;;;;5014126;28;19975;-62
2023/02/04 15:54:01;;;;;;;;;;;;;;;;;;5026804;28;19928;-64
2023/02/04 15:56:26;;;;;;;;;;;;;;;;;;5028548;28;19929;-63
2023/02/04 15:58:55;;;;;;;;;;;;;;;;;;5029431;28;19939;-63
2023/02/04 16:01:20;;;;;;;;;;;;;;;;;;5027564;28;20059;-64
2023/02/04 16:03:50;;;;;;;;;;;;;;;;;;5028127;28;19921;-63
2023/02/04 16:06:15;;;;;;;;;;;;;;;;;;5029870;28;19920;-63
2023/02/04 16:08:40;;;;;;;;;;;;;;;;;;5030496;28;20315;-63
2023/02/04 16:11:07;;;;;;;;;;;;;;;;;;5031452;28;20354;-63
2023/02/04 16:13:36;;;;;;;;;;;;;;;;;;5013972;28;19967;-63
2023/02/04 16:16:04;;;;;;;;;;;;;;;;;;5016404;28;20386;-63
2023/02/04 16:18:32;;;;;;;;;;;;;;;;;;5019650;28;20261;-63
2023/02/04 16:20:57;;;;;;;;;;;;;;;;;;5017579;28;20022;-63
2023/02/04 16:23:27;;;;;;;;;;;;;;;;;;5019466;28;19975;-63
2023/02/04 16:25:52;;;;;;;;;;;;;;;;;;5036262;28;19916;-63
2023/02/04 16:28:20;;;;;;;;;;;;;;;;;;5027092;28;19927;-64
2023/02/04 16:30:45;;;;;;;;;;;;;;;;;;5018783;28;20654;-64
2023/02/04 16:33:11;;;;;;;;;;;;;;;;;;5033437;28;20301;-63
2023/02/04 16:35:36;;;;;;;;;;;;;;;;;;5034958;28;20457;-63
2023/02/04 16:38:06;;;;;;;;;;;;;;;;;;5030469;28;20436;-63
2023/02/04 16:40:37;;;;;;;;;;;;;;;;;;5017982;28;20440;-63
2023/02/04 16:43:02;;;;;;;;;;;;;;;;;;5020922;28;20117;-64
2023/02/04 16:45:31;;;;;;;;;;;;;;;;;;5032039;28;20455;-64
2023/02/04 16:47:56;;;;;;;;;;;;;;;;;;5031831;28;19916;-64